ADDS METAR Data INFO
IDs: Format: Raw Decoded Include TAF

Data at: 0500 UTC 23 May 2017

KJSO 230455Z AUTO 02003KT 7SM OVC004 16/16 A2995 RMK AO2 T01600160
KJSO 230435Z AUTO 04004KT 7SM OVC004 16/16 A2995 RMK AO2 T01600160
KJSO 230415Z AUTO 02004KT 10SM OVC004 16/16 A2996 RMK AO2 T01600160
KJSO 230355Z AUTO 03004KT 7SM OVC004 16/16 A2996 RMK AO2 T01600160
KJSO 230335Z AUTO 04005KT 7SM OVC004 16/16 A2995 RMK AO2 T01620162
KJSO 230315Z AUTO 06004KT 7SM OVC004 16/16 A2995 RMK AO2 T01630163
KJSO 230255Z AUTO 04005KT 7SM OVC002 16/16 A2995 RMK AO2 T01630163
KJSO 230235Z AUTO 04004KT 5SM BR OVC004 16/16 A2994 RMK AO2 T01630163
KJSO 230215Z AUTO 03003KT 5SM BR OVC004 16/16 A2994 RMK AO2 T01630163
KJSO 230155Z AUTO 03004KT 5SM BR SCT002 OVC007 16/16 A2995 RMK AO2 T01620162
KJSO 230135Z AUTO 04005KT 3SM BR OVC002 16/16 A2995 RMK AO2 T01630163
KJSO 230115Z AUTO 05005KT 2SM BR OVC002 16/16 A2995 RMK AO2 T01640164
KJSO 230055Z AUTO 03006KT 1 1/2SM BR OVC002 16/16 A2995 RMK AO2 LTG DSNT NW T01650165
KJSO 230035Z AUTO 03005KT 2 1/2SM BR OVC002 16/16 A2994 RMK AO2 T01670167
KJSO 230015Z AUTO 05006KT 3SM BR BKN002 OVC008 16/16 A2995 RMK AO2 T01670167
KJSO 222355Z AUTO 04004KT 2 1/2SM BR BKN002 OVC008 17/17 A2994 RMK AO2 T01700170
KJSO 222335Z AUTO 03005KT 2SM BR OVC004 17/17 A2995 RMK AO2 T01700170
KJSO 222315Z AUTO 04009KT 10SM OVC006 17/17 A2995 RMK AO2 T01750171
KJSO 222255Z AUTO 05006KT 10SM OVC006 17/17 A2996 RMK AO2 T01750171
KJSO 222235Z AUTO 03006KT 10SM OVC008 17/17 A2996 RMK AO2 T01780172
KJSO 222215Z AUTO 07006KT 10SM SCT006 OVC010 17/17 A2996 RMK AO2 T01780172
KJSO 222155Z AUTO 07004KT 10SM OVC008 17/17 A2997 RMK AO2 T01780173
KJSO 222135Z AUTO 04005KT 10SM OVC008 17/17 A2997 RMK AO2 T01800175
KJSO 222115Z AUTO 04005KT 10SM OVC006 17/17 A2998 RMK AO2 T01770175
KJSO 222055Z AUTO 05005KT 10SM OVC004 17/17 A2998 RMK AO2 P0003 T01770176
KJSO 222035Z AUTO 04005KT 10SM -DZ OVC004 17/17 A3000 RMK AO2 P0003 T01760175
KJSO 222015Z AUTO 04006KT 7SM -RA OVC004 17/17 A3001 RMK AO2 P0002 T01740174
KJSO 221955Z AUTO 08005KT 4SM -RA BKN004 OVC009 17/17 A3002 RMK AO2 P0006 T01750174
KJSO 221935Z AUTO 07004KT 7SM +DZ BKN004 OVC009 17/17 A3002 RMK AO2 P0001 T01750173
KJSO 221915Z AUTO 05004KT 10SM BKN006 OVC009 17/17 A3003 RMK AO2 T01730172
KJSO 221900Z AUTO 04005KT 10SM -DZ OVC003 17/17 A3003 RMK AO2 T01730173
KJSO 221835Z AUTO 05006KT 10SM DZ OVC003 17/17 A3003 RMK AO2 P0001 T01730173
KJSO 221815Z AUTO 05005KT 7SM -RA OVC003 17/17 A3004 RMK AO2 P0001 T01710171
KJSO 221755Z AUTO 04005KT 10SM RA OVC003 17/17 A3005 RMK AO2 P0006 T01700170
KJSO 221735Z AUTO 05007KT 5SM -RA BKN003 OVC007 17/17 A3005 RMK AO2 LTG DSNT S P0005 T01700170
KJSO 221715Z AUTO 06007KT 7SM RA OVC003 16/16 A3006 RMK AO2 P0001 T01690169
KJSO 221655Z AUTO 06007KT 10SM OVC003 17/17 A3006 RMK AO2 P0001 T01700170
KJSO 221635Z AUTO 06005KT 10SM -DZ OVC003 17/17 A3006 RMK AO2 P0001 T01700170
KJSO 221615Z AUTO 07009KT 10SM -RA OVC005 16/16 A3006 RMK AO2 P0001 T01680168
KJSO 221555Z AUTO 10008KT 7SM -RA OVC005 16/16 A3006 RMK AO2 P0011 T01670167
KJSO 221535Z AUTO 10006KT 5SM RA BKN003 OVC007 16/16 A3007 RMK AO2 P0009 T01660166
KJSO 221515Z AUTO 08006KT 5SM RA BKN003 OVC007 16/16 A3006 RMK AO2 P0005 T01630163
KJSO 221455Z AUTO 09007KT 5SM RA OVC003 16/16 A3006 RMK AO2 P0013 T01620162
KJSO 221435Z AUTO 08007G16KT 5SM RA OVC003 16/16 A3006 RMK AO2 P0006 T01620162
KJSO 221415Z AUTO 09008KT 7SM RA OVC003 16/16 A3007 RMK AO2 P0002 T01610161
KJSO 221355Z AUTO 08009KT 4SM -RA OVC003 16/16 A3007 RMK AO2 P0019 T01600160
KJSO 221335Z AUTO 08005KT 4SM +RA BKN005 OVC014 16/16 A3008 RMK AO2 P0012 T01580158
KJSO 221320Z AUTO 08004KT 4SM RA OVC005 15/15 A3008 RMK AO2 P0006 T01570157
KJSO 221255Z AUTO 07008KT 4SM RA BKN005 BKN015 OVC033 15/15 A3008 RMK AO2 P0013 T01570157
KJSO 221235Z AUTO 06007KT 7SM RA BKN005 BKN026 OVC033 15/15 A3009 RMK AO2 LTG DSNT S P0007 T01580157
KJSO 221215Z AUTO 05008KT 7SM RA SCT006 BKN010 OVC035 15/15 A3009 RMK AO2 P0004 T01570156
KJSO 221155Z AUTO 04010G16KT 7SM RA SCT008 BKN034 OVC044 16/15 A3010 RMK AO2 P0012 T01580155
KJSO 221135Z AUTO 04013KT 7SM RA SCT037 OVC045 16/15 A3009 RMK AO2 P0007 T01600157
KJSO 221115Z AUTO 06009G17KT 7SM RA SCT011 BKN036 OVC049 16/15 A3010 RMK AO2 P0003 T01620157
KJSO 221055Z AUTO 03006KT 4SM +RA SCT007 OVC011 16/16 A3013 RMK AO2 P0029 T01640162
KJSO 221035Z AUTO 33006KT 10SM SCT007 BKN033 OVC060 16/16 A3014 RMK AO2 P0001 T01660165
KJSO 221015Z AUTO 02006KT 10SM RA SCT034 OVC060 16/16 A3008 RMK AO2 P0001 T01650162
KJSO 220955Z AUTO 03008KT 10SM BKN060 OVC120 16/16 A3008 RMK AO2 T01650162
KJSO 220935Z AUTO 06007KT 10SM SCT060 BKN120 16/16 A3008 RMK AO2 T01650162
KJSO 220915Z AUTO 04007KT 10SM -RA SCT042 BKN060 OVC075 16/16 A3008 RMK AO2 T01670163
KJSO 220855Z AUTO 01006KT 10SM DZ SCT042 OVC075 16/16 A3011 RMK AO2 P0002 T01680163
KJSO 220835Z AUTO 02006KT 10SM RA OVC075 17/16 A3011 RMK AO2 P0001 T01700162
KJSO 220815Z AUTO 05006KT 10SM RA OVC075 17/16 A3009 RMK AO2 T01720161
KJSO 220755Z AUTO 05007KT 10SM BKN075 OVC085 17/16 A3010 RMK AO2 T01730160
KJSO 220735Z AUTO 06006KT 10SM SCT075 OVC085 17/16 A3010 RMK AO2 T01730162
KJSO 220715Z AUTO 07003KT 10SM BKN080 BKN120 17/16 A3011 RMK AO2 T01730161
KJSO 220655Z AUTO 05005KT 10SM -DZ SCT070 SCT120 17/16 A3011 RMK AO2 T01700162
KJSO 220635Z AUTO 06005KT 10SM BKN070 BKN100 OVC120 17/16 A3012 RMK AO2 T01710162
KJSO 220615Z AUTO 06003KT 10SM -DZ SCT070 OVC100 17/16 A3013 RMK AO2 T01700161
KJSO 220555Z AUTO 03004KT 10SM OVC110 17/16 A3012 RMK AO2 T01700160
KJSO 220535Z AUTO 00000KT 10SM BKN110 17/15 A3013 RMK AO2 LTG DSNT NW T01720153
KJSO 220515Z AUTO 36005G16KT 10SM -DZ SCT033 SCT042 OVC120 17/15 A3012 RMK AO2 LTG DSNT NW THRU NE T01740153
KJSO 220455Z AUTO 35009KT 7SM +TSRA SCT030 BKN070 OVC080 17/16 A3012 RMK AO2 LTG DSNT ALQS P0002 T01770159
KJSO 220435Z AUTO 00000KT 10SM VCTS OVC080 18/15 A3014 RMK AO2 LTG DSNT SW AND W T01810151
KJSO 220415Z AUTO 11004KT 10SM BKN070 OVC080 18/15 A3014 RMK AO2 LTG DSNT SW AND W T01810154
KJSO 220355Z AUTO 00000KT 10SM OVC070 17/15 A3015 RMK AO2 LTG DSNT SW AND W T01800153
KJSO 220335Z AUTO 13003KT 10SM BKN070 OVC120 17/15 A3014 RMK AO2 LTG DSNT SW T01800153
KJSO 220315Z AUTO 11005KT 10SM BKN120 17/15 A3013 RMK AO2 LTG DSNT SW T01780152
KJSO 220255Z AUTO 09006KT 10SM CLR 17/15 A3011 RMK AO2 LTG DSNT SW T01780156
KJSO 220235Z AUTO 05007KT 10SM CLR 17/16 A3010 RMK AO2 LTG DSNT SW T01760160
KJSO 220215Z AUTO 05005KT 10SM CLR 17/15 A3010 RMK AO2 T01760158
KJSO 220155Z AUTO 04007KT 10SM CLR 17/15 A3010 RMK AO2 T01770155
KJSO 220135Z AUTO 08004KT 10SM CLR 17/15 A3010 RMK AO2 LTG DSNT SW T01770152
KJSO 220115Z AUTO 04007KT 10SM CLR 17/15 A3009 RMK AO2 T01800152
KJSO 220055Z AUTO 03008KT 10SM CLR 18/15 A3008 RMK AO2 T01820155
KJSO 220035Z AUTO 02006KT 10SM CLR 18/16 A3009 RMK AO2 T01860160
KJSO 220015Z AUTO 02004KT 10SM CLR 18/16 A3010 RMK AO2 LTG DSNT SE T01910162
KJSO 212355Z AUTO 04005KT 10SM CLR 19/16 A3009 RMK AO2 T01950164
KJSO 212335Z AUTO 02007KT 10SM CLR 19/16 A3007 RMK AO2 LTG DSNT W T01950164
KJSO 212315Z AUTO 03006KT 10SM SCT090 SCT120 20/17 A3008 RMK AO2 T01980171
KJSO 212255Z AUTO 04006KT 10SM BKN090 BKN120 20/17 A3011 RMK AO2 T01990171
KJSO 212235Z AUTO 05004KT 10SM BKN090 BKN120 20/16 A3011 RMK AO2 LTG DSNT E T01990169
KJSO 212215Z AUTO 05007KT 10SM SCT015 BKN090 OVC120 20/17 A3011 RMK AO2 LTG DSNT S T02030170
KJSO 212155Z AUTO 05008KT 10SM BKN013 OVC110 20/17 A3011 RMK AO2 T02050173
KJSO 212135Z AUTO 04007KT 10SM BKN011 BKN110 20/17 A3010 RMK AO2 T02070173
KJSO 212115Z AUTO 04010KT 10SM BKN011 BKN120 20/17 A3009 RMK AO2 LTG DSNT E AND SE T02050173
KJSO 212055Z AUTO 02008KT 10SM BKN011 21/17 A3009 RMK AO2 T02110180
KJSO 212035Z AUTO 35008KT 320V020 10SM SCT009 SCT120 21/17 A3010 RMK AO2 T02090180
KJSO 212015Z AUTO 01008KT 10SM SCT008 SCT090 21/18 A3010 RMK AO2 T02100184
KJSO 211955Z AUTO 34004KT 10SM SCT006 SCT090 20/17 A3010 RMK AO2 T02030179
KJSO 211935Z AUTO 34005KT 10SM SCT006 SCT080 20/18 A3010 RMK AO2 T02000188
KJSO 211915Z AUTO 35006KT 10SM SCT065 SCT080 18/17 A3010 RMK AO2 LTG DSNT E T01870180
KJSO 211855Z AUTO 04004KT 10SM BKN065 BKN080 OVC090 17/17 A3011 RMK AO2 LTG DSNT NE AND E P0003 T01750170
KJSO 211835Z AUTO 10004KT 10SM -RA BKN055 OVC065 16/15 A3014 RMK AO2 LTG DSNT N AND NW P0003 T01600156
KJSO 211815Z AUTO 01005KT 10SM -TSRA 16/15 A3017 RMK AO2 LTG DSNT NW THRU NE T01660149
KJSO 211755Z AUTO 04007KT 10SM VCTS OVC047 17/14 A3016 RMK AO2 LTG DSNT W THRU NE T01760145
KJSO 211735Z AUTO 03006KT 10SM VCTS OVC043 17/13 A3016 RMK AO2 LTG DSNT W THRU NE T01790141
KJSO 211715Z AUTO 05009G14KT 10SM TS OVC043 18/13 A3016 RMK AO2 LTG DSNT W THRU NE T01820141


Page loaded:  05:00 UTC  |   10:00 PM Pacific  |   11:00 PM Mountain  |   12:00 AM Central  |   01:00 AM Eastern

 

ADVISORIES

FORECASTS

FORECASTS

OBSERVATIONS

USER TOOLS

ABOUT US